createdAt,value
2022-10-02T00:01:37.020Z,91.42
2022-10-02T00:05:50.954Z,91.42
2022-10-02T00:10:12.600Z,91.38
2022-10-02T00:14:28.379Z,91.20
2022-10-02T00:18:40.260Z,91.44
2022-10-02T00:22:58.043Z,91.48
2022-10-02T00:27:17.495Z,91.79
2022-10-02T00:31:45.073Z,92.22
2022-10-02T00:36:00.327Z,92.09
2022-10-02T00:40:23.108Z,92.04
2022-10-02T00:44:45.486Z,91.89
2022-10-02T00:49:00.469Z,91.88
2022-10-02T00:53:17.212Z,91.72
2022-10-02T00:57:42.325Z,91.50
2022-10-02T01:02:53.454Z,91.44
2022-10-02T01:06:56.161Z,91.64
2022-10-02T01:11:02.539Z,91.70
2022-10-02T01:15:18.558Z,91.76
2022-10-02T01:19:34.089Z,91.69
2022-10-02T01:23:39.372Z,91.70
2022-10-02T01:27:41.913Z,91.73
2022-10-02T01:31:45.308Z,91.78
2022-10-02T01:35:50.407Z,91.86
2022-10-02T01:39:53.637Z,91.89
2022-10-02T01:44:01.804Z,91.98
2022-10-02T01:48:29.635Z,92.15
2022-10-02T01:52:51.290Z,92.18
2022-10-02T01:57:16.669Z,92.41
2022-10-02T02:01:24.759Z,92.76
2022-10-02T02:05:45.933Z,92.46
2022-10-02T02:10:34.490Z,92.60
2022-10-02T02:15:11.275Z,92.66
2022-10-02T02:19:16.604Z,92.58
2022-10-02T02:23:50.483Z,92.74
2022-10-02T02:28:18.027Z,92.82
2022-10-02T02:32:50.316Z,92.94
2022-10-02T02:37:18.924Z,93.05
2022-10-02T02:41:29.364Z,92.98
2022-10-02T02:45:53.362Z,93.28
2022-10-02T02:50:08.574Z,93.10
2022-10-02T02:54:17.448Z,93.31
2022-10-02T02:59:05.211Z,93.43
2022-10-02T03:03:29.037Z,93.43
2022-10-02T03:07:31.746Z,93.42
2022-10-02T03:11:55.480Z,93.43
2022-10-02T03:16:20.023Z,93.53
2022-10-02T03:20:45.807Z,93.36
2022-10-02T03:25:09.786Z,93.44
2022-10-02T03:29:28.540Z,93.53
2022-10-02T03:33:37.459Z,93.67
2022-10-02T03:37:52.420Z,93.97
2022-10-02T03:41:57.495Z,93.72
2022-10-02T03:46:07.599Z,93.44
2022-10-02T03:50:18.763Z,93.35
2022-10-02T03:54:22.390Z,93.61
2022-10-02T03:58:25.562Z,93.64
2022-10-02T04:02:43.109Z,93.63
2022-10-02T04:07:07.399Z,93.56
2022-10-02T04:11:23.451Z,93.69
2022-10-02T04:15:37.113Z,93.80
2022-10-02T04:19:45.928Z,93.83
2022-10-02T04:24:02.646Z,93.62
2022-10-02T04:28:18.495Z,93.51
2022-10-02T04:32:33.473Z,93.48
2022-10-02T04:36:46.036Z,93.50
2022-10-02T04:41:15.413Z,93.60
2022-10-02T04:45:39.521Z,93.68
2022-10-02T04:50:09.368Z,93.68
2022-10-02T04:54:33.753Z,94.05
2022-10-02T04:58:54.308Z,93.94
2022-10-02T05:03:26.787Z,94.05
2022-10-02T05:07:49.979Z,94.03
2022-10-02T05:12:31.337Z,94.07
2022-10-02T05:16:34.015Z,94.13
2022-10-02T05:21:30.682Z,94.21
2022-10-02T05:25:42.942Z,94.38
2022-10-02T05:30:13.473Z,94.35
2022-10-02T05:34:21.280Z,94.23
2022-10-02T05:38:35.613Z,94.34
2022-10-02T05:43:22.860Z,94.37
2022-10-02T05:47:40.953Z,94.30
2022-10-02T05:51:59.225Z,94.22
2022-10-02T05:56:27.651Z,94.35
2022-10-02T06:00:37.486Z,94.62
2022-10-02T06:04:55.626Z,94.36
2022-10-02T06:09:26.989Z,94.51
2022-10-02T06:13:51.921Z,94.43
2022-10-02T06:18:01.733Z,94.52
2022-10-02T06:22:55.942Z,94.44
2022-10-02T06:27:38.289Z,94.39
2022-10-02T06:31:58.089Z,94.59
2022-10-02T06:36:34.852Z,94.40
2022-10-02T06:41:01.310Z,94.51
2022-10-02T06:45:39.851Z,95.07
2022-10-02T06:50:34.225Z,94.72
2022-10-02T06:55:00.666Z,94.86
2022-10-02T07:10:12.767Z,95.24
2022-10-02T07:14:59.966Z,95.55
2022-10-02T07:19:59.857Z,95.70
2022-10-02T07:24:27.559Z,95.93
2022-10-02T07:35:15.449Z,95.75
2022-10-02T07:51:30.454Z,96.76
2022-10-02T07:55:42.324Z,97.01
2022-10-02T08:00:18.040Z,96.97
2022-10-02T08:04:36.703Z,96.95
2022-10-02T08:08:51.530Z,97.06
2022-10-02T08:13:22.266Z,96.99
2022-10-02T08:17:46.795Z,96.87
2022-10-02T08:22:13.876Z,97.19
2022-10-02T08:26:35.854Z,97.37
2022-10-02T08:30:38.809Z,97.38
2022-10-02T08:34:43.085Z,97.07
2022-10-02T08:38:54.471Z,97.12
2022-10-02T08:42:59.765Z,96.83
2022-10-02T08:47:47.004Z,96.33
2022-10-02T08:52:22.983Z,95.63
2022-10-02T08:56:43.606Z,95.83
2022-10-02T09:01:04.055Z,95.35
2022-10-02T09:05:43.511Z,94.55
2022-10-02T09:10:17.503Z,94.16
2022-10-02T09:15:09.281Z,94.17
2022-10-02T09:19:43.096Z,93.81
2022-10-02T09:24:06.667Z,93.50
2022-10-02T09:28:42.443Z,93.62
2022-10-02T09:33:16.084Z,93.93
2022-10-02T09:38:03.768Z,93.96
2022-10-02T09:42:19.576Z,93.98
2022-10-02T09:46:46.300Z,93.88
2022-10-02T09:51:10.004Z,93.90
2022-10-02T09:55:30.852Z,94.38
2022-10-02T09:59:50.011Z,93.94
2022-10-02T10:04:47.841Z,91.97
2022-10-02T10:09:16.664Z,91.33
2022-10-02T10:13:21.807Z,90.16
2022-10-02T10:17:30.211Z,90.92
2022-10-02T10:21:45.228Z,90.56
2022-10-02T10:26:09.269Z,90.06
2022-10-02T10:30:14.305Z,88.86
2022-10-02T10:34:53.350Z,86.48
2022-10-02T10:39:37.127Z,83.71
2022-10-02T10:44:00.646Z,81.06
2022-10-02T10:48:24.616Z,80.98
2022-10-02T10:52:29.412Z,80.29
2022-10-02T10:56:48.750Z,79.96
2022-10-02T11:00:53.435Z,79.89
2022-10-02T11:05:32.660Z,80.96
2022-10-02T11:09:59.651Z,81.01
2022-10-02T11:14:30.761Z,78.96
2022-10-02T11:19:21.520Z,77.76
2022-10-02T11:23:35.748Z,77.68
2022-10-02T11:27:43.565Z,79.11
2022-10-02T11:32:01.990Z,80.38
2022-10-02T11:36:26.273Z,81.69
2022-10-02T11:40:48.925Z,82.79
2022-10-02T11:45:12.335Z,83.59
2022-10-02T11:49:39.669Z,84.15
2022-10-02T11:54:19.072Z,84.84
2022-10-02T11:58:56.351Z,84.94
2022-10-02T12:03:01.309Z,85.08
2022-10-02T12:07:13.600Z,85.10
2022-10-02T12:11:52.113Z,85.26
2022-10-02T12:16:09.984Z,85.40
2022-10-02T12:20:36.129Z,85.59
2022-10-02T12:25:33.133Z,85.09
2022-10-02T12:30:00.839Z,85.64
2022-10-02T12:34:09.084Z,85.16
2022-10-02T12:38:38.384Z,85.33
2022-10-02T12:43:16.196Z,84.20
2022-10-02T12:47:35.580Z,83.68
2022-10-02T12:51:46.478Z,83.91
2022-10-02T12:56:22.573Z,84.47
2022-10-02T13:00:29.009Z,84.79
2022-10-02T13:04:43.361Z,85.25
2022-10-02T13:09:04.781Z,85.34
2022-10-02T13:13:24.528Z,85.56
2022-10-02T13:17:45.787Z,86.22
2022-10-02T13:22:13.701Z,87.07
2022-10-02T13:26:25.432Z,86.94
2022-10-02T13:30:33.185Z,86.73
2022-10-02T13:34:50.636Z,86.73
2022-10-02T13:38:58.998Z,87.23
2022-10-02T13:43:34.113Z,87.54
2022-10-02T13:48:07.432Z,87.47
2022-10-02T13:52:22.513Z,87.68
2022-10-02T13:56:38.397Z,87.56
2022-10-02T14:00:46.695Z,87.61
2022-10-02T14:04:48.585Z,87.67
2022-10-02T14:09:02.613Z,87.92
2022-10-02T14:13:41.934Z,87.85
2022-10-02T14:18:07.692Z,87.69
2022-10-02T14:22:28.149Z,87.66
2022-10-02T14:26:55.748Z,87.34
2022-10-02T14:31:26.069Z,87.40
2022-10-02T14:35:43.400Z,86.99
2022-10-02T14:39:45.415Z,86.92
2022-10-02T14:44:03.074Z,86.84
2022-10-02T14:48:44.786Z,86.68
2022-10-02T14:53:28.919Z,86.84
2022-10-02T14:57:53.192Z,86.92
2022-10-02T15:02:10.268Z,86.87
2022-10-02T15:06:31.109Z,86.61
2022-10-02T15:10:38.160Z,86.41
2022-10-02T15:15:08.741Z,86.18
2022-10-02T15:19:16.074Z,86.02
2022-10-02T15:23:40.952Z,86.07
2022-10-02T15:28:31.309Z,86.17
2022-10-02T15:32:39.905Z,86.26
2022-10-02T15:36:48.868Z,86.28
2022-10-02T15:41:12.754Z,86.36
2022-10-02T15:45:42.438Z,86.47
2022-10-02T15:50:10.094Z,86.40
2022-10-02T15:54:14.742Z,86.23
2022-10-02T15:58:35.260Z,86.09
2022-10-02T16:02:59.697Z,86.02
2022-10-02T16:07:36.742Z,86.25
2022-10-02T16:11:41.755Z,86.48
2022-10-02T16:16:23.899Z,86.73
2022-10-02T16:20:47.926Z,86.89
2022-10-02T16:25:34.770Z,86.90
2022-10-02T16:30:13.551Z,86.82
2022-10-02T16:35:01.030Z,86.62
2022-10-02T16:39:21.549Z,86.48
2022-10-02T16:43:42.780Z,86.63
2022-10-02T16:47:53.811Z,86.66
2022-10-02T16:52:03.115Z,86.36
2022-10-02T16:56:15.922Z,86.06
2022-10-02T17:00:31.809Z,86.20
2022-10-02T17:04:45.837Z,86.43
2022-10-02T17:08:53.402Z,86.60
2022-10-02T17:13:13.479Z,86.65
2022-10-02T17:17:41.544Z,86.57
2022-10-02T17:22:11.560Z,86.67
2022-10-02T17:26:40.657Z,86.94
2022-10-02T17:30:51.830Z,86.95
2022-10-02T17:34:58.442Z,87.10
2022-10-02T17:39:22.544Z,86.94
2022-10-02T17:43:42.111Z,86.88
2022-10-02T17:48:14.927Z,86.89
2022-10-02T17:53:01.632Z,87.20
2022-10-02T17:57:43.652Z,87.18
2022-10-02T18:02:19.596Z,87.08
2022-10-02T18:06:37.560Z,87.19
2022-10-02T18:11:06.762Z,86.89
2022-10-02T18:15:27.254Z,86.95
2022-10-02T18:19:54.898Z,86.93
2022-10-02T18:24:26.843Z,87.04
2022-10-02T18:28:43.482Z,87.38
2022-10-02T18:33:16.683Z,87.43
2022-10-02T18:37:37.394Z,87.77
2022-10-02T18:42:24.365Z,87.64
2022-10-02T18:46:51.316Z,87.47
2022-10-02T18:51:11.372Z,87.54
2022-10-02T18:55:28.356Z,87.81
2022-10-02T18:59:36.839Z,87.82
2022-10-02T19:03:55.235Z,87.65
2022-10-02T19:08:03.244Z,87.62
2022-10-02T19:12:23.621Z,87.79
2022-10-02T19:16:26.659Z,87.73
2022-10-02T19:20:50.454Z,87.89
2022-10-02T19:24:56.961Z,88.12
2022-10-02T19:29:05.201Z,88.12
2022-10-02T19:33:08.340Z,88.10
2022-10-02T19:37:15.883Z,88.01
2022-10-02T19:41:19.048Z,88.04
2022-10-02T19:45:26.409Z,88.21
2022-10-02T19:49:37.889Z,88.01
2022-10-02T19:53:55.499Z,87.87
2022-10-02T19:58:05.908Z,87.99
2022-10-02T20:02:29.548Z,87.99
2022-10-02T20:06:39.322Z,88.28
2022-10-02T20:11:22.937Z,88.21
2022-10-02T20:16:16.627Z,88.14
2022-10-02T20:20:20.263Z,88.00
2022-10-02T20:24:45.488Z,88.37
2022-10-02T20:28:56.949Z,88.59
2022-10-02T20:33:09.253Z,88.59
2022-10-02T20:37:18.444Z,88.71
2022-10-02T20:41:27.803Z,88.66
2022-10-02T20:45:40.008Z,88.97
2022-10-02T20:50:00.479Z,89.10
2022-10-02T20:54:23.079Z,89.16
2022-10-02T20:58:40.153Z,89.33
2022-10-02T21:03:06.837Z,89.51
2022-10-02T21:07:39.600Z,89.61
2022-10-02T21:12:18.634Z,90.19
2022-10-02T21:17:05.905Z,90.38
2022-10-02T21:21:53.794Z,90.60
2022-10-02T21:26:04.908Z,90.68
2022-10-02T21:30:15.980Z,90.75
2022-10-02T21:34:23.686Z,90.85
2022-10-02T21:38:51.635Z,90.91
2022-10-02T21:43:25.717Z,91.08
2022-10-02T21:47:54.696Z,91.16
2022-10-02T21:52:15.141Z,91.07
2022-10-02T21:56:52.401Z,91.10
2022-10-02T22:01:06.109Z,91.11
2022-10-02T22:05:25.412Z,91.11
2022-10-02T22:09:44.210Z,91.06
2022-10-02T22:13:48.796Z,91.07
2022-10-02T22:18:33.690Z,90.96
2022-10-02T22:22:54.230Z,91.01
2022-10-02T22:27:14.382Z,91.13
2022-10-02T22:31:29.846Z,90.97
2022-10-02T22:36:09.175Z,91.07
2022-10-02T22:40:23.219Z,90.95
2022-10-02T22:44:30.034Z,90.77
2022-10-02T22:48:45.696Z,90.63
2022-10-02T22:53:04.501Z,90.65
2022-10-02T22:57:43.177Z,90.63
2022-10-02T23:01:54.617Z,90.64
2022-10-02T23:06:05.971Z,90.60
2022-10-02T23:10:10.810Z,90.64
2022-10-02T23:14:22.670Z,90.74
2022-10-02T23:18:48.061Z,90.88
2022-10-02T23:22:59.088Z,90.87
2022-10-02T23:27:23.591Z,90.81
2022-10-02T23:31:31.630Z,90.86
2022-10-02T23:35:45.204Z,90.82
2022-10-02T23:39:54.569Z,90.82
2022-10-02T23:44:02.729Z,90.91
2022-10-02T23:48:11.171Z,90.86
2022-10-02T23:52:34.629Z,90.84
2022-10-02T23:56:53.254Z,90.94
